createdAt,value
2023-05-19T00:00:51.192Z,10.64
2023-05-19T00:01:52.911Z,10.64
2023-05-19T00:02:54.881Z,10.63
2023-05-19T00:03:56.491Z,10.63
2023-05-19T00:04:58.280Z,10.63
2023-05-19T00:05:59.957Z,10.6
2023-05-19T00:07:01.654Z,10.59
2023-05-19T00:08:03.320Z,10.58
2023-05-19T00:09:05.100Z,10.58
2023-05-19T00:10:06.791Z,10.57
2023-05-19T00:11:08.496Z,10.55
2023-05-19T00:12:10.251Z,10.53
2023-05-19T00:13:11.988Z,10.52
2023-05-19T00:14:13.718Z,10.52
2023-05-19T00:15:15.465Z,10.51
2023-05-19T00:16:17.395Z,10.48
2023-05-19T00:17:18.911Z,10.46
2023-05-19T00:18:20.645Z,10.44
2023-05-19T00:19:22.618Z,10.41
2023-05-19T00:20:24.320Z,10.4
2023-05-19T00:21:25.845Z,10.39
2023-05-19T00:22:27.733Z,10.35
2023-05-19T00:23:29.514Z,10.33
2023-05-19T00:24:31.224Z,10.31
2023-05-19T00:25:32.798Z,10.29
2023-05-19T00:26:34.619Z,10.26
2023-05-19T00:27:36.252Z,10.25
2023-05-19T00:28:37.991Z,10.22
2023-05-19T00:29:39.756Z,10.21
2023-05-19T00:30:41.450Z,10.19
2023-05-19T00:31:43.254Z,10.17
2023-05-19T00:32:45.033Z,10.15
2023-05-19T00:33:46.651Z,10.12
2023-05-19T00:34:48.425Z,10.1
2023-05-19T00:35:50.127Z,10.08
2023-05-19T00:36:51.904Z,10.05
2023-05-19T00:37:53.598Z,10.03
2023-05-19T00:38:55.314Z,10
2023-05-19T00:39:57.073Z,9.98
2023-05-19T00:40:58.863Z,9.95
2023-05-19T00:42:00.512Z,9.94
2023-05-19T00:43:02.245Z,9.91
2023-05-19T00:44:04.114Z,9.89
2023-05-19T00:45:05.816Z,9.86
2023-05-19T00:46:07.899Z,9.83
2023-05-19T00:47:09.264Z,9.8
2023-05-19T00:48:10.957Z,9.78
2023-05-19T00:49:12.643Z,9.76
2023-05-19T00:50:14.394Z,9.75
2023-05-19T00:51:16.118Z,9.73
2023-05-19T00:52:17.850Z,9.72
2023-05-19T00:53:19.656Z,9.7
2023-05-19T00:54:21.306Z,9.68
2023-05-19T00:55:23.057Z,9.67
2023-05-19T00:56:24.783Z,9.65
2023-05-19T00:57:26.544Z,9.64
2023-05-19T00:58:28.367Z,9.62
2023-05-19T00:59:29.971Z,9.61
2023-05-19T01:00:31.922Z,9.6
2023-05-19T01:01:33.654Z,9.59
2023-05-19T01:02:35.302Z,9.58
2023-05-19T01:03:36.993Z,9.57
2023-05-19T01:04:38.661Z,9.55
2023-05-19T01:05:40.371Z,9.55
2023-05-19T01:06:42.105Z,9.54
2023-05-19T01:07:43.833Z,9.53
2023-05-19T01:08:45.670Z,9.52
2023-05-19T01:09:47.307Z,9.52
2023-05-19T01:10:49.032Z,9.5
2023-05-19T01:11:50.894Z,9.5
2023-05-19T01:12:52.556Z,9.49
2023-05-19T01:13:54.232Z,9.49
2023-05-19T01:14:56.000Z,9.48
2023-05-19T01:15:57.717Z,9.49
2023-05-19T01:16:59.498Z,9.48
2023-05-19T01:18:01.305Z,9.47
2023-05-19T01:19:03.161Z,9.48
2023-05-19T01:20:04.651Z,9.48
2023-05-19T01:21:06.411Z,9.48
2023-05-19T01:22:08.105Z,9.49
2023-05-19T01:23:09.831Z,9.49
2023-05-19T01:24:11.606Z,9.5
2023-05-19T01:25:23.627Z,9.5
2023-05-19T01:26:25.352Z,9.49
2023-05-19T01:27:27.229Z,9.5
2023-05-19T01:28:28.927Z,9.5
2023-05-19T01:29:30.618Z,9.5
2023-05-19T01:30:32.616Z,9.5
2023-05-19T01:31:34.154Z,9.5
2023-05-19T01:32:35.824Z,9.49
2023-05-19T01:33:37.489Z,9.49
2023-05-19T01:34:39.225Z,9.5
2023-05-19T01:35:40.961Z,9.5
2023-05-19T01:36:42.755Z,9.49
2023-05-19T01:37:44.599Z,9.5
2023-05-19T01:38:46.145Z,9.49
2023-05-19T01:39:47.869Z,9.49
2023-05-19T01:40:49.603Z,9.49
2023-05-19T01:41:51.343Z,9.49
2023-05-19T01:42:53.982Z,9.48
2023-05-19T01:43:54.845Z,9.46
2023-05-19T01:44:56.676Z,9.46
2023-05-19T01:45:58.297Z,9.45
2023-05-19T01:46:59.999Z,9.45
2023-05-19T01:48:01.813Z,9.44
2023-05-19T01:49:03.539Z,9.44
2023-05-19T01:50:05.223Z,9.43
2023-05-19T01:51:06.932Z,9.42
2023-05-19T01:52:08.669Z,9.41
2023-05-19T01:53:10.410Z,9.41
2023-05-19T01:54:12.133Z,9.4
2023-05-19T01:55:13.927Z,9.39
2023-05-19T01:56:15.673Z,9.38
2023-05-19T01:57:17.333Z,9.38
2023-05-19T01:58:19.082Z,9.36
2023-05-19T01:59:20.827Z,9.34
2023-05-19T02:00:22.553Z,9.33
2023-05-19T02:01:24.343Z,9.3
2023-05-19T02:02:26.383Z,9.28
2023-05-19T02:03:27.878Z,9.27
2023-05-19T02:04:29.685Z,9.25
2023-05-19T02:05:31.577Z,9.23
2023-05-19T02:06:32.926Z,9.23
2023-05-19T02:07:34.813Z,9.22
2023-05-19T02:08:36.415Z,9.2
2023-05-19T02:09:38.127Z,9.18
2023-05-19T02:10:39.924Z,9.18
2023-05-19T02:11:41.606Z,9.16
2023-05-19T02:12:43.335Z,9.14
2023-05-19T02:13:45.103Z,9.12
2023-05-19T02:14:46.791Z,9.11
2023-05-19T02:15:48.575Z,9.08
2023-05-19T02:16:50.267Z,9.07
2023-05-19T02:17:52.173Z,9.06
2023-05-19T02:18:53.787Z,9.03
2023-05-19T02:19:55.534Z,9.01
2023-05-19T02:20:57.197Z,9
2023-05-19T02:21:59.006Z,8.98
2023-05-19T02:23:00.656Z,8.97
2023-05-19T02:24:02.385Z,8.96
2023-05-19T02:25:04.142Z,8.95
2023-05-19T02:26:05.864Z,8.93
2023-05-19T02:27:07.665Z,8.93
2023-05-19T02:28:09.337Z,8.92
2023-05-19T02:29:11.062Z,8.9
2023-05-19T02:30:12.820Z,8.89
2023-05-19T02:31:14.532Z,8.88
2023-05-19T02:32:16.478Z,8.87
2023-05-19T02:33:17.978Z,8.86
2023-05-19T02:34:19.734Z,8.86
2023-05-19T02:35:21.671Z,8.85
2023-05-19T02:36:23.631Z,8.84
2023-05-19T02:37:24.977Z,8.82
2023-05-19T02:38:26.740Z,8.82
2023-05-19T02:39:28.553Z,8.81
2023-05-19T02:40:34.871Z,8.8
2023-05-19T02:41:37.012Z,8.79
2023-05-19T02:42:38.742Z,8.79
2023-05-19T02:43:40.829Z,8.78
2023-05-19T02:44:42.201Z,8.78
2023-05-19T02:45:44.051Z,8.77
2023-05-19T02:46:46.023Z,8.76
2023-05-19T02:47:47.465Z,8.75
2023-05-19T02:48:49.293Z,8.74
2023-05-19T02:49:50.937Z,8.74
2023-05-19T02:50:52.592Z,8.73
2023-05-19T02:51:54.523Z,8.73
2023-05-19T02:52:56.325Z,8.72
2023-05-19T02:53:57.850Z,8.71
2023-05-19T02:54:59.572Z,8.7
2023-05-19T02:56:02.781Z,8.69
2023-05-19T02:57:03.018Z,8.68
2023-05-19T02:58:04.838Z,8.68
2023-05-19T02:59:06.755Z,8.67
2023-05-19T03:00:08.210Z,8.67
2023-05-19T03:01:12.379Z,8.65
2023-05-19T03:02:16.965Z,8.64
2023-05-19T03:03:18.934Z,8.63
2023-05-19T03:04:20.617Z,8.62
2023-05-19T03:05:22.367Z,8.61
2023-05-19T03:06:24.076Z,8.6
2023-05-19T03:07:25.838Z,8.59
2023-05-19T03:08:27.616Z,8.57
2023-05-19T03:09:29.423Z,8.56
2023-05-19T03:10:31.172Z,8.57
2023-05-19T03:11:32.738Z,8.55
2023-05-19T03:12:34.480Z,8.55
2023-05-19T03:13:36.217Z,8.55
2023-05-19T03:14:37.956Z,8.54
2023-05-19T03:15:39.671Z,8.52
2023-05-19T03:16:41.570Z,8.51
2023-05-19T03:17:43.339Z,8.5
2023-05-19T03:18:44.996Z,8.49
2023-05-19T03:19:46.622Z,8.49
2023-05-19T03:20:48.344Z,8.48
2023-05-19T03:21:51.998Z,8.47
2023-05-19T03:22:56.965Z,8.48
2023-05-19T03:23:58.874Z,8.46
2023-05-19T03:25:00.441Z,8.45
2023-05-19T03:26:02.299Z,8.45
2023-05-19T03:27:03.913Z,8.43
2023-05-19T03:28:05.738Z,8.41
2023-05-19T03:29:07.430Z,8.4
2023-05-19T03:30:09.210Z,8.39
2023-05-19T03:31:10.935Z,8.39
2023-05-19T03:32:12.571Z,8.38
2023-05-19T03:33:14.556Z,8.36
2023-05-19T03:34:16.025Z,8.35
2023-05-19T03:35:17.754Z,8.34
2023-05-19T03:36:19.503Z,8.33
2023-05-19T03:37:21.234Z,8.31
2023-05-19T03:38:22.974Z,8.3
2023-05-19T03:39:24.697Z,8.29
2023-05-19T03:40:26.478Z,8.28
2023-05-19T03:41:28.178Z,8.27
2023-05-19T03:42:30.072Z,8.25
2023-05-19T03:43:31.775Z,8.24
2023-05-19T03:44:33.356Z,8.22
2023-05-19T03:45:35.130Z,8.21
2023-05-19T03:46:36.824Z,8.19
2023-05-19T03:47:38.571Z,8.18
2023-05-19T03:48:40.301Z,8.16
2023-05-19T03:49:42.162Z,8.15
2023-05-19T03:50:43.758Z,8.12
2023-05-19T03:51:45.489Z,8.1
2023-05-19T03:52:47.233Z,8.09
2023-05-19T03:53:49.371Z,8.05
2023-05-19T03:54:50.810Z,8.03
2023-05-19T03:55:52.416Z,8.01
2023-05-19T03:56:54.158Z,7.98
2023-05-19T03:58:01.235Z,7.96
2023-05-19T03:59:02.832Z,7.93
2023-05-19T04:00:04.577Z,7.93
2023-05-19T04:01:06.425Z,7.91
2023-05-19T04:02:08.382Z,7.89
2023-05-19T04:03:09.849Z,7.88
2023-05-19T04:04:11.609Z,7.87
2023-05-19T04:05:13.259Z,7.86
2023-05-19T04:06:14.899Z,7.85
2023-05-19T04:07:19.750Z,7.84
2023-05-19T04:08:21.737Z,7.83
2023-05-19T04:09:23.261Z,7.83
2023-05-19T04:10:24.913Z,7.82
2023-05-19T04:11:26.739Z,7.82
2023-05-19T04:12:28.484Z,7.82
2023-05-19T04:13:30.121Z,7.82
2023-05-19T04:14:31.838Z,7.83
2023-05-19T04:15:33.663Z,7.82
2023-05-19T04:16:35.321Z,7.83
2023-05-19T04:17:37.110Z,7.84
2023-05-19T04:18:38.807Z,7.85
2023-05-19T04:19:42.192Z,7.86
2023-05-19T04:20:42.326Z,7.87
2023-05-19T04:21:45.550Z,7.89
2023-05-19T04:22:45.726Z,7.91
2023-05-19T04:23:47.445Z,7.93
2023-05-19T04:24:49.251Z,7.94
2023-05-19T04:25:50.921Z,7.95
2023-05-19T04:26:52.810Z,7.97
2023-05-19T04:27:54.554Z,7.98
2023-05-19T04:28:56.223Z,8
2023-05-19T04:29:57.830Z,8.01
2023-05-19T04:30:59.728Z,8.03
2023-05-19T04:32:01.375Z,8.05
2023-05-19T04:33:03.233Z,8.07
2023-05-19T04:34:04.779Z,8.08
2023-05-19T04:35:06.626Z,8.1
2023-05-19T04:36:08.239Z,8.12
2023-05-19T04:37:10.083Z,8.13
2023-05-19T04:38:11.808Z,8.14
2023-05-19T04:39:13.532Z,8.17
2023-05-19T04:40:15.403Z,8.19
2023-05-19T04:41:17.043Z,8.21
2023-05-19T04:42:18.787Z,8.22
2023-05-19T04:43:20.589Z,8.24
2023-05-19T04:44:22.283Z,8.26
2023-05-19T04:45:24.121Z,8.28
2023-05-19T04:46:25.682Z,8.3
2023-05-19T04:47:27.478Z,8.31
2023-05-19T04:48:29.110Z,8.33
2023-05-19T04:49:30.861Z,8.34
2023-05-19T04:50:32.867Z,8.35
2023-05-19T04:51:34.324Z,8.36
2023-05-19T04:52:36.309Z,8.37
2023-05-19T04:53:37.895Z,8.38
2023-05-19T04:54:39.615Z,8.39
2023-05-19T04:55:41.359Z,8.39
2023-05-19T04:56:42.991Z,8.4
2023-05-19T04:57:55.048Z,8.41
2023-05-19T04:59:07.217Z,8.43
2023-05-19T05:00:08.825Z,8.44
2023-05-19T05:01:10.549Z,8.45
2023-05-19T05:02:12.386Z,8.46
2023-05-19T05:03:14.077Z,8.47
2023-05-19T05:04:15.718Z,8.48
2023-05-19T05:05:17.469Z,8.49
2023-05-19T05:06:19.344Z,8.51
2023-05-19T05:07:21.114Z,8.51
2023-05-19T05:08:22.747Z,8.52
2023-05-19T05:09:24.413Z,8.54
2023-05-19T05:10:26.144Z,8.56
2023-05-19T05:11:27.996Z,8.58
2023-05-19T05:12:29.606Z,8.6
2023-05-19T05:13:31.365Z,8.62
2023-05-19T05:14:33.086Z,8.64
2023-05-19T05:15:34.950Z,8.66
2023-05-19T05:16:36.701Z,8.68
2023-05-19T05:17:38.495Z,8.7
2023-05-19T05:18:41.622Z,8.72
2023-05-19T05:19:41.821Z,8.76
2023-05-19T05:20:45.676Z,8.77
2023-05-19T05:21:50.967Z,8.81
2023-05-19T05:22:52.066Z,8.84
2023-05-19T05:23:53.991Z,8.88
2023-05-19T05:24:55.534Z,8.92
2023-05-19T05:25:57.278Z,8.94
2023-05-19T05:26:59.020Z,8.98
2023-05-19T05:28:00.875Z,9.02
2023-05-19T05:29:02.466Z,9.07
2023-05-19T05:30:04.451Z,9.11
2023-05-19T05:31:05.953Z,9.15
2023-05-19T05:32:07.972Z,9.22
2023-05-19T05:33:09.711Z,9.27
2023-05-19T05:34:11.145Z,9.33
2023-05-19T05:35:13.033Z,9.4
2023-05-19T05:36:14.788Z,9.46
2023-05-19T05:37:16.336Z,9.54
2023-05-19T05:38:18.108Z,9.61
2023-05-19T05:39:19.801Z,9.68
2023-05-19T05:40:21.669Z,9.75
2023-05-19T05:41:23.574Z,9.84
2023-05-19T05:42:26.260Z,9.93
2023-05-19T05:43:26.736Z,10.02
2023-05-19T05:44:28.452Z,10.12
2023-05-19T05:45:30.362Z,10.23
2023-05-19T05:46:32.170Z,10.33
2023-05-19T05:47:33.683Z,10.44
2023-05-19T05:48:35.470Z,10.54
2023-05-19T05:49:37.204Z,10.64
2023-05-19T05:50:38.944Z,10.75
2023-05-19T05:51:40.738Z,10.87
2023-05-19T05:52:42.375Z,10.97
2023-05-19T05:53:44.090Z,11.08
2023-05-19T05:54:45.904Z,11.2
2023-05-19T05:55:47.622Z,11.32
2023-05-19T05:56:49.496Z,11.43
2023-05-19T05:57:51.030Z,11.53
2023-05-19T05:58:52.872Z,11.65
2023-05-19T05:59:54.466Z,11.78
2023-05-19T06:00:56.207Z,11.9
2023-05-19T06:01:58.159Z,12.03
2023-05-19T06:03:00.034Z,12.14
2023-05-19T06:04:01.528Z,12.26
2023-05-19T06:05:03.468Z,12.38
2023-05-19T06:06:05.083Z,12.5
2023-05-19T06:07:06.612Z,12.61
2023-05-19T06:08:08.373Z,12.7
2023-05-19T06:09:10.079Z,12.8
2023-05-19T06:10:11.834Z,12.86
2023-05-19T06:11:13.612Z,12.94
2023-05-19T06:12:15.272Z,13.04
2023-05-19T06:13:17.012Z,13.12
2023-05-19T06:14:18.837Z,13.16
2023-05-19T06:15:20.480Z,13.21
2023-05-19T06:16:22.277Z,13.27
2023-05-19T06:17:23.953Z,13.34
2023-05-19T06:18:25.682Z,13.39
2023-05-19T06:19:27.580Z,13.45
2023-05-19T06:20:29.175Z,13.52
2023-05-19T06:21:30.225Z,13.55
2023-05-19T06:22:32.611Z,13.63
2023-05-19T06:23:34.365Z,13.68
2023-05-19T06:24:38.697Z,13.73
2023-05-19T06:25:39.725Z,13.76
2023-05-19T06:26:44.697Z,13.78
2023-05-19T06:27:46.436Z,13.79
2023-05-19T06:28:48.238Z,13.82
2023-05-19T06:29:50.114Z,13.86
2023-05-19T06:30:51.776Z,13.88
2023-05-19T06:31:53.529Z,13.85
2023-05-19T06:32:55.099Z,13.86
2023-05-19T06:33:56.925Z,13.9
2023-05-19T06:34:58.759Z,13.91
2023-05-19T06:36:00.469Z,13.9
2023-05-19T06:37:02.086Z,13.92
2023-05-19T06:38:03.837Z,13.94
2023-05-19T06:39:05.653Z,13.91
2023-05-19T06:40:07.414Z,13.88
2023-05-19T06:41:09.197Z,13.87
2023-05-19T06:42:10.709Z,13.88
2023-05-19T06:43:12.450Z,13.89
2023-05-19T06:44:14.188Z,13.89
2023-05-19T06:45:16.158Z,13.84
2023-05-19T06:46:17.689Z,13.84
2023-05-19T06:47:19.384Z,13.85
2023-05-19T06:48:21.100Z,13.85
2023-05-19T06:49:22.843Z,13.88
2023-05-19T06:50:24.582Z,13.91
2023-05-19T06:51:26.308Z,13.95
2023-05-19T06:52:28.057Z,13.95
2023-05-19T06:53:29.828Z,14
2023-05-19T06:54:31.489Z,14.05
2023-05-19T06:55:34.435Z,14.08
2023-05-19T06:56:34.951Z,14.11
2023-05-19T06:57:44.134Z,14.1
2023-05-19T06:58:46.542Z,14.17
2023-05-19T06:59:48.102Z,14.23
2023-05-19T07:00:50.182Z,14.28
2023-05-19T07:01:51.631Z,14.36
2023-05-19T07:02:53.387Z,14.45
2023-05-19T07:03:55.186Z,14.47
2023-05-19T07:04:56.800Z,14.52
2023-05-19T07:05:58.484Z,14.56
2023-05-19T07:07:00.220Z,14.59
2023-05-19T07:08:01.967Z,14.62
2023-05-19T07:09:03.760Z,14.59
2023-05-19T07:10:05.446Z,14.57
2023-05-19T07:11:07.169Z,14.56
2023-05-19T07:12:08.951Z,14.45
2023-05-19T07:13:10.641Z,14.47
2023-05-19T07:14:12.363Z,14.35
2023-05-19T07:15:14.105Z,14.27
2023-05-19T07:16:15.880Z,14.31
2023-05-19T07:17:17.579Z,14.32
2023-05-19T07:18:19.310Z,14.32
2023-05-19T07:19:21.129Z,14.37
2023-05-19T07:20:22.792Z,14.4
2023-05-19T07:21:24.586Z,14.42
2023-05-19T07:22:26.320Z,14.47
2023-05-19T07:23:27.968Z,14.51
2023-05-19T07:24:29.715Z,14.5
2023-05-19T07:25:31.437Z,14.54
2023-05-19T07:26:33.162Z,14.52
2023-05-19T07:27:34.928Z,14.52
2023-05-19T07:28:38.669Z,14.48
2023-05-19T07:29:38.366Z,14.45
2023-05-19T07:30:40.142Z,14.45
2023-05-19T07:31:41.905Z,14.45
2023-05-19T07:32:43.642Z,14.42
2023-05-19T07:33:45.300Z,14.34
2023-05-19T07:34:47.046Z,14.33
2023-05-19T07:35:48.781Z,14.35
2023-05-19T07:36:50.514Z,14.4
2023-05-19T07:37:52.246Z,14.43
2023-05-19T07:38:54.001Z,14.46
2023-05-19T07:39:55.728Z,14.51
2023-05-19T07:40:57.530Z,14.56
2023-05-19T07:41:59.191Z,14.62
2023-05-19T07:43:01.053Z,14.65
2023-05-19T07:44:02.759Z,14.71
2023-05-19T07:45:04.372Z,14.71
2023-05-19T07:46:06.379Z,14.78
2023-05-19T07:47:07.868Z,14.84
2023-05-19T07:48:09.690Z,14.9
2023-05-19T07:49:11.320Z,14.93
2023-05-19T07:50:13.078Z,14.98
2023-05-19T07:51:14.843Z,15.05
2023-05-19T07:52:16.523Z,15.08
2023-05-19T07:53:18.355Z,15.13
2023-05-19T07:54:19.982Z,15.19
2023-05-19T07:55:21.721Z,15.25
2023-05-19T07:56:23.478Z,15.31
2023-05-19T07:57:25.205Z,15.34
2023-05-19T07:58:26.950Z,15.38
2023-05-19T07:59:28.768Z,15.44
2023-05-19T08:00:30.779Z,15.48
2023-05-19T08:01:32.143Z,15.52
2023-05-19T08:02:34.129Z,15.5
2023-05-19T08:03:35.842Z,15.51
2023-05-19T08:04:37.437Z,15.56
2023-05-19T08:05:39.267Z,15.54
2023-05-19T08:06:40.844Z,15.56
2023-05-19T08:07:42.531Z,15.62
2023-05-19T08:08:44.255Z,15.64
2023-05-19T08:09:46.011Z,15.64
2023-05-19T08:10:47.777Z,15.67
2023-05-19T08:11:49.475Z,15.7
2023-05-19T08:12:51.192Z,15.75
2023-05-19T08:13:52.947Z,15.78
2023-05-19T08:14:54.666Z,15.8
2023-05-19T08:15:56.464Z,15.84
2023-05-19T08:16:58.217Z,15.88
2023-05-19T08:17:59.924Z,15.93
2023-05-19T08:19:01.829Z,15.96
2023-05-19T08:20:03.452Z,16.02
2023-05-19T08:21:05.250Z,16.06
2023-05-19T08:22:06.813Z,16.13
2023-05-19T08:23:08.573Z,16.13
2023-05-19T08:24:10.291Z,16.18
2023-05-19T08:25:12.026Z,16.23
2023-05-19T08:26:13.759Z,16.27
2023-05-19T08:27:15.481Z,16.31
2023-05-19T08:28:17.229Z,16.31
2023-05-19T08:29:18.960Z,16.34
2023-05-19T08:30:20.702Z,16.4
2023-05-19T08:31:22.491Z,16.35
2023-05-19T08:32:24.171Z,16.38
2023-05-19T08:33:25.897Z,16.4
2023-05-19T08:34:27.654Z,16.43
2023-05-19T08:35:29.348Z,16.45
2023-05-19T08:36:31.157Z,16.46
2023-05-19T08:37:34.175Z,16.48
2023-05-19T08:38:34.549Z,16.51
2023-05-19T08:39:36.313Z,16.58
2023-05-19T08:40:38.060Z,16.62
2023-05-19T08:41:39.764Z,16.68
2023-05-19T08:42:41.505Z,16.65
2023-05-19T08:43:43.233Z,16.67
2023-05-19T08:44:44.974Z,16.74
2023-05-19T08:45:46.869Z,16.79
2023-05-19T08:46:48.542Z,16.81
2023-05-19T08:47:50.229Z,16.83
2023-05-19T08:48:51.897Z,16.86
2023-05-19T08:49:53.643Z,16.88
2023-05-19T08:50:55.376Z,16.92
2023-05-19T08:51:57.094Z,16.96
2023-05-19T08:52:58.911Z,16.99
2023-05-19T08:54:00.578Z,17.04
2023-05-19T08:55:02.474Z,17.08
2023-05-19T08:56:04.062Z,17.12
2023-05-19T08:57:05.784Z,17.15
2023-05-19T08:58:07.507Z,17.19
2023-05-19T08:59:09.250Z,17.25
2023-05-19T09:00:10.982Z,17.31
2023-05-19T09:01:12.800Z,17.34
2023-05-19T09:02:14.446Z,17.35
2023-05-19T09:03:22.887Z,17.41
2023-05-19T09:04:18.193Z,17.43
2023-05-19T09:05:19.659Z,17.49
2023-05-19T09:06:21.381Z,17.53
2023-05-19T09:07:23.109Z,17.58
2023-05-19T09:08:25.075Z,17.63
2023-05-19T09:09:26.570Z,17.7
2023-05-19T09:10:29.196Z,17.75
2023-05-19T09:11:30.129Z,17.76
2023-05-19T09:12:32.108Z,17.82
2023-05-19T09:13:33.719Z,17.86
2023-05-19T09:14:35.247Z,17.86
2023-05-19T09:15:37.085Z,17.93
2023-05-19T09:16:38.741Z,17.94
2023-05-19T09:17:40.474Z,17.93
2023-05-19T09:18:42.243Z,17.94
2023-05-19T09:19:43.927Z,17.93
2023-05-19T09:20:45.727Z,17.97
2023-05-19T09:21:47.426Z,17.98
2023-05-19T09:22:49.143Z,18.01
2023-05-19T09:23:50.717Z,18
2023-05-19T09:24:52.433Z,18
2023-05-19T09:25:54.160Z,18.02
2023-05-19T09:26:56.995Z,18.04
2023-05-19T09:27:57.634Z,18.08
2023-05-19T09:28:59.479Z,18.04
2023-05-19T09:30:01.191Z,18.09
2023-05-19T09:31:02.864Z,18.04
2023-05-19T09:32:04.625Z,18.01
2023-05-19T09:33:06.361Z,17.97
2023-05-19T09:34:08.029Z,17.93
2023-05-19T09:35:09.767Z,17.89
2023-05-19T09:36:11.530Z,17.88
2023-05-19T09:37:13.252Z,17.86
2023-05-19T09:38:14.978Z,17.88
2023-05-19T09:39:16.746Z,17.9
2023-05-19T09:40:18.484Z,17.94
2023-05-19T09:41:20.176Z,17.99
2023-05-19T09:42:21.905Z,18.04
2023-05-19T09:43:23.647Z,18.05
2023-05-19T09:44:25.368Z,18.11
2023-05-19T09:45:27.100Z,18.12
2023-05-19T09:46:28.996Z,18.18
2023-05-19T09:47:30.593Z,18.22
2023-05-19T09:48:32.322Z,18.24
2023-05-19T09:49:34.045Z,18.29
2023-05-19T09:50:35.778Z,18.29
2023-05-19T09:51:37.527Z,18.34
2023-05-19T09:52:39.258Z,18.42
2023-05-19T09:53:41.054Z,18.48
2023-05-19T09:54:42.718Z,18.56
2023-05-19T09:55:44.457Z,18.65
2023-05-19T09:56:46.185Z,18.74
2023-05-19T09:57:47.923Z,18.82
2023-05-19T09:58:49.651Z,18.89
2023-05-19T09:59:51.402Z,18.97
2023-05-19T10:00:53.148Z,19.04
2023-05-19T10:01:54.938Z,19.07
2023-05-19T10:02:56.674Z,19.09
2023-05-19T10:03:58.333Z,19.09
2023-05-19T10:05:00.606Z,19.15
2023-05-19T10:06:02.239Z,19.19
2023-05-19T10:07:03.527Z,19.25
2023-05-19T10:08:05.246Z,19.3
2023-05-19T10:09:07.011Z,19.33
2023-05-19T10:10:08.732Z,19.37
2023-05-19T10:11:10.459Z,19.41
2023-05-19T10:12:12.219Z,19.45
2023-05-19T10:13:13.940Z,19.48
2023-05-19T10:14:15.685Z,19.49
2023-05-19T10:15:17.400Z,19.51
2023-05-19T10:16:19.169Z,19.45
2023-05-19T10:17:20.866Z,19.42
2023-05-19T10:18:22.606Z,19.44
2023-05-19T10:19:24.435Z,19.34
2023-05-19T10:20:26.059Z,19.33
2023-05-19T10:21:27.957Z,19.35
2023-05-19T10:22:29.719Z,19.35
2023-05-19T10:23:31.261Z,19.38
2023-05-19T10:24:33.092Z,19.41
2023-05-19T10:25:34.930Z,19.48
2023-05-19T10:26:36.474Z,19.54
2023-05-19T10:27:38.212Z,19.59
2023-05-19T10:28:39.930Z,19.67
2023-05-19T10:29:41.692Z,19.69
2023-05-19T10:30:43.400Z,19.68
2023-05-19T10:31:45.181Z,19.64
2023-05-19T10:32:46.946Z,19.62
2023-05-19T10:33:48.598Z,19.63
2023-05-19T10:34:50.481Z,19.58
2023-05-19T10:35:52.066Z,19.56
2023-05-19T10:36:53.817Z,19.46
2023-05-19T10:37:55.526Z,19.39
2023-05-19T10:38:57.295Z,19.39
2023-05-19T10:39:59.011Z,19.4
2023-05-19T10:41:12.184Z,19.36
2023-05-19T10:42:07.691Z,19.32
2023-05-19T10:43:10.045Z,19.33
2023-05-19T10:44:11.170Z,19.33
2023-05-19T10:45:12.868Z,19.31
2023-05-19T10:46:14.761Z,19.24
2023-05-19T10:47:16.377Z,19.29
2023-05-19T10:48:18.017Z,19.28
2023-05-19T10:49:19.768Z,19.2
2023-05-19T10:50:21.515Z,19.22
2023-05-19T10:51:23.244Z,19.26
2023-05-19T10:52:24.967Z,19.26
2023-05-19T10:53:26.877Z,19.29
2023-05-19T10:54:28.593Z,19.3
2023-05-19T10:55:30.456Z,19.28
2023-05-19T10:56:31.908Z,19.25
2023-05-19T10:57:33.632Z,19.23
2023-05-19T10:58:35.392Z,19.29
2023-05-19T10:59:37.286Z,19.26
2023-05-19T11:00:38.839Z,19.31
2023-05-19T11:01:40.621Z,19.34
2023-05-19T11:02:42.691Z,19.36
2023-05-19T11:03:44.086Z,19.38
2023-05-19T11:04:45.820Z,19.37
2023-05-19T11:05:47.526Z,19.4
2023-05-19T11:06:49.262Z,19.42
2023-05-19T11:07:50.994Z,19.44
2023-05-19T11:08:52.746Z,19.45
2023-05-19T11:09:54.474Z,19.47
2023-05-19T11:10:56.206Z,19.44
2023-05-19T11:11:57.924Z,19.43
2023-05-19T11:12:59.761Z,19.46
2023-05-19T11:14:01.413Z,19.5
2023-05-19T11:15:03.149Z,19.5
2023-05-19T11:16:04.957Z,19.49
2023-05-19T11:17:06.707Z,19.52
2023-05-19T11:18:08.498Z,19.52
2023-05-19T11:19:10.123Z,19.57
2023-05-19T11:20:11.790Z,19.56
2023-05-19T11:21:13.731Z,19.58
2023-05-19T11:22:15.275Z,19.53
2023-05-19T11:23:17.041Z,19.54
2023-05-19T11:24:18.922Z,19.54
2023-05-19T11:25:20.629Z,19.58
2023-05-19T11:26:22.215Z,19.6
2023-05-19T11:27:23.939Z,19.62
2023-05-19T11:28:25.741Z,19.64
2023-05-19T11:29:27.437Z,19.66
2023-05-19T11:30:29.150Z,19.71
2023-05-19T11:31:30.923Z,19.74
2023-05-19T11:32:32.628Z,19.79
2023-05-19T11:33:34.331Z,19.84
2023-05-19T11:34:36.076Z,19.9
2023-05-19T11:35:38.103Z,19.97
2023-05-19T11:36:39.608Z,19.99
2023-05-19T11:37:41.282Z,20
2023-05-19T11:38:43.002Z,20
2023-05-19T11:39:44.752Z,20.02
2023-05-19T11:40:46.489Z,19.99
2023-05-19T11:41:48.217Z,19.97
2023-05-19T11:42:49.953Z,20.01
2023-05-19T11:43:51.692Z,19.97
2023-05-19T11:44:53.411Z,20.01
2023-05-19T11:45:55.392Z,20
2023-05-19T11:46:56.931Z,20.02
2023-05-19T11:48:02.421Z,20.03
2023-05-19T11:49:00.347Z,20.02
2023-05-19T11:50:02.296Z,20.02
2023-05-19T11:51:03.825Z,19.92
2023-05-19T11:52:05.560Z,19.96
2023-05-19T11:53:07.294Z,19.95
2023-05-19T11:54:09.100Z,19.94
2023-05-19T11:55:10.753Z,19.95
2023-05-19T11:56:12.508Z,19.93
2023-05-19T11:57:14.259Z,19.95
2023-05-19T11:58:15.985Z,19.96
2023-05-19T11:59:17.699Z,19.95
2023-05-19T12:00:19.445Z,19.88
2023-05-19T12:01:21.182Z,19.89
2023-05-19T12:02:22.969Z,19.88
2023-05-19T12:03:24.788Z,19.9
2023-05-19T12:04:26.469Z,19.92
2023-05-19T12:05:28.223Z,19.89
2023-05-19T12:06:29.983Z,19.88
2023-05-19T12:07:32.277Z,19.87
2023-05-19T12:08:33.305Z,19.84
2023-05-19T12:09:35.243Z,19.82
2023-05-19T12:10:36.769Z,19.8
2023-05-19T12:11:38.520Z,19.77
2023-05-19T12:12:40.222Z,19.75
2023-05-19T12:13:42.031Z,19.72
2023-05-19T12:14:43.793Z,19.66
2023-05-19T12:15:45.463Z,19.69
2023-05-19T12:16:47.241Z,19.69
2023-05-19T12:17:48.962Z,19.7
2023-05-19T12:18:50.697Z,19.72
2023-05-19T12:19:52.388Z,19.7
2023-05-19T12:20:54.115Z,19.68
2023-05-19T12:21:55.848Z,19.66
2023-05-19T12:22:57.573Z,19.67
2023-05-19T12:23:59.300Z,19.65
2023-05-19T12:25:01.193Z,19.64
2023-05-19T12:26:02.771Z,19.6
2023-05-19T12:27:04.643Z,19.56
2023-05-19T12:28:06.244Z,19.55
2023-05-19T12:29:07.976Z,19.5
2023-05-19T12:30:09.785Z,19.47
2023-05-19T12:31:11.683Z,19.42
2023-05-19T12:32:13.219Z,19.43
2023-05-19T12:33:14.965Z,19.44
2023-05-19T12:34:16.644Z,19.46
2023-05-19T12:35:18.376Z,19.47
2023-05-19T12:36:20.110Z,19.5
2023-05-19T12:37:21.846Z,19.52
2023-05-19T12:38:23.604Z,19.57
2023-05-19T12:39:25.308Z,19.62
2023-05-19T12:40:27.048Z,19.66
2023-05-19T12:41:28.777Z,19.68
2023-05-19T12:42:30.544Z,19.68
2023-05-19T12:43:32.340Z,19.8
2023-05-19T12:44:34.015Z,19.96
2023-05-19T12:45:35.768Z,20.04
2023-05-19T12:46:37.441Z,20.13
2023-05-19T12:47:39.274Z,20.28
2023-05-19T12:48:40.914Z,20.32
2023-05-19T12:49:42.653Z,20.35
2023-05-19T12:50:44.384Z,20.4
2023-05-19T12:51:46.123Z,20.47
2023-05-19T12:52:47.854Z,20.53
2023-05-19T12:53:49.620Z,20.6
2023-05-19T12:54:51.364Z,20.61
2023-05-19T12:55:53.071Z,20.67
2023-05-19T12:56:54.812Z,20.82
2023-05-19T12:57:56.550Z,21
2023-05-19T12:58:58.265Z,21.15
2023-05-19T13:00:00.229Z,21.35
2023-05-19T13:01:01.969Z,21.46
2023-05-19T13:02:03.634Z,21.46
2023-05-19T13:03:05.663Z,21.57
2023-05-19T13:04:07.461Z,21.63
2023-05-19T13:05:09.228Z,21.67
2023-05-19T13:06:10.819Z,21.66
2023-05-19T13:07:12.555Z,21.68
2023-05-19T13:08:13.870Z,21.73
2023-05-19T13:09:17.104Z,21.78
2023-05-19T13:10:17.348Z,21.77
2023-05-19T13:11:19.062Z,21.79
2023-05-19T13:12:20.802Z,21.77
2023-05-19T13:13:22.542Z,21.76
2023-05-19T13:14:24.279Z,21.71
2023-05-19T13:15:26.036Z,21.67
2023-05-19T13:16:27.777Z,21.6
2023-05-19T13:17:29.516Z,21.45
2023-05-19T13:18:31.289Z,21.34
2023-05-19T13:19:33.028Z,21.31
2023-05-19T13:20:35.022Z,21.22
2023-05-19T13:21:36.423Z,21.18
2023-05-19T13:22:38.150Z,21.14
2023-05-19T13:23:39.893Z,21.12
2023-05-19T13:24:41.630Z,21.11
2023-05-19T13:25:43.351Z,21.09
2023-05-19T13:26:45.176Z,21.04
2023-05-19T13:27:46.820Z,21.04
2023-05-19T13:28:48.548Z,20.97
2023-05-19T13:29:50.301Z,20.99